Time;durP1;ratioP1;P1;durP2;ratioP2;P2;SDS_P1;SDS_P2;PMS_P1;PMS_P2;Temp;Humidity;BMP_temperature;BMP_pressure;BME280_temperature;BME280_humidity;BME280_pressure;Samples;Min_cycle;Max_cycle;Signal;HPM_P1;HPM_P2
2022/05/31 00:00:02;;;;;;;1.90;1.70;;;;;;;8.42;100.00;96011.97;4919653;28;105306;-77
2022/05/31 00:02:39;;;;;;;2.57;2.37;;;;;;;8.47;100.00;96016.53;4923902;28;102382;-77
2022/05/31 00:05:46;;;;;;;1.97;1.77;;;;;;;8.56;100.00;96013.19;4912888;28;102071;-76
2022/05/31 00:08:14;;;;;;;1.70;1.60;;;;;;;8.38;100.00;96008.22;4924886;28;105277;-76
2022/05/31 00:10:42;;;;;;;2.10;2.00;;;;;;;8.43;100.00;96002.16;4911621;28;103910;-77
2022/05/31 00:13:09;;;;;;;1.60;1.50;;;;;;;8.18;100.00;96010.56;4927010;28;101960;-76
2022/05/31 00:15:39;;;;;;;3.00;1.93;;;;;;;8.03;100.00;96014.84;4912526;28;104909;-76
2022/05/31 00:18:08;;;;;;;2.20;2.10;;;;;;;8.16;100.00;96020.59;4924407;28;105452;-76
2022/05/31 00:20:36;;;;;;;2.07;1.97;;;;;;;8.03;100.00;96009.56;4928890;28;104872;-77
2022/05/31 00:23:03;;;;;;;2.13;1.80;;;;;;;8.13;100.00;96012.34;4929133;28;102766;-76
2022/05/31 00:25:42;;;;;;;1.97;1.80;;;;;;;8.12;100.00;96005.44;4915648;28;102159;-77
2022/05/31 00:28:38;;;;;;;1.97;1.87;;;;;;;8.13;100.00;96013.13;4915504;28;104858;-76
2022/05/31 00:31:07;;;;;;;1.93;1.80;;;;;;;7.93;100.00;96009.41;4929414;28;105469;-77
2022/05/31 00:33:58;;;;;;;1.70;1.60;;;;;;;7.96;100.00;96001.75;4918577;28;102542;-76
2022/05/31 00:36:25;;;;;;;2.13;1.90;;;;;;;8.04;100.00;95998.72;4926246;28;105449;-77
2022/05/31 00:38:55;;;;;;;1.93;1.83;;;;;;;8.02;100.00;95992.84;4928832;28;105844;-77
2022/05/31 00:41:26;;;;;;;2.27;2.03;;;;;;;8.06;100.00;95991.31;4930598;28;102255;-77
2022/05/31 00:44:11;;;;;;;2.20;2.10;;;;;;;8.06;100.00;95998.44;4930760;28;104103;-76
2022/05/31 00:46:45;;;;;;;2.63;2.37;;;;;;;8.06;100.00;95991.31;4933115;28;101848;-76
2022/05/31 00:49:17;;;;;;;3.47;2.10;;;;;;;7.93;100.00;95986.38;4932088;28;104463;-77
2022/05/31 00:51:50;;;;;;;2.27;2.10;;;;;;;7.88;100.00;95988.16;4917474;28;105383;-77
2022/05/31 00:54:32;;;;;;;2.10;2.00;;;;;;;7.92;100.00;95995.34;4915151;28;101847;-76
2022/05/31 00:57:14;;;;;;;2.03;1.93;;;;;;;7.73;100.00;95999.31;4913749;28;105001;-76
2022/05/31 00:59:45;;;;;;;2.00;1.80;;;;;;;7.78;100.00;96003.88;4913146;28;105425;-76
2022/05/31 01:02:15;;;;;;;2.10;2.00;;;;;;;7.89;100.00;95997.69;4913642;28;101955;-76
2022/05/31 01:04:47;;;;;;;2.40;2.20;;;;;;;8.00;100.00;96005.53;4915066;28;105535;-77
2022/05/31 01:07:13;;;;;;;2.80;2.00;;;;;;;7.94;100.00;96000.41;4913647;28;101851;-77
2022/05/31 01:09:40;;;;;;;2.10;2.00;;;;;;;8.00;100.00;95999.44;4913384;28;105471;-76
2022/05/31 01:12:42;;;;;;;2.23;2.03;;;;;;;7.77;100.00;95996.97;4877485;28;103036;-76
2022/05/31 01:15:50;;;;;;;2.03;1.90;;;;;;;7.80;100.00;95991.22;4855087;29;101995;-76
2022/05/31 01:18:35;;;;;;;1.77;1.67;;;;;;;7.74;100.00;95997.47;4855802;29;102102;-76
2022/05/31 01:21:28;;;;;;;1.90;1.80;;;;;;;7.74;100.00;95994.84;4881801;28;102626;-77
2022/05/31 01:24:22;;;;;;;1.70;1.60;;;;;;;7.61;100.00;95997.78;4913249;28;101824;-76
2022/05/31 01:26:54;;;;;;;1.87;1.77;;;;;;;7.62;100.00;96004.69;4913345;28;105438;-77
2022/05/31 01:29:25;;;;;;;2.33;2.10;;;;;;;7.53;100.00;96000.84;4916093;28;105750;-76
2022/05/31 01:31:57;;;;;;;2.57;2.37;;;;;;;7.74;100.00;95994.84;4912853;28;105474;-76
2022/05/31 01:34:52;;;;;;;2.20;2.10;;;;;;;7.80;100.00;96001.81;4912877;28;105509;-77
2022/05/31 01:37:25;;;;;;;2.80;2.60;;;;;;;7.90;100.00;95991.38;4913142;28;101877;-77
2022/05/31 01:39:58;;;;;;;2.43;2.23;;;;;;;7.97;100.00;95992.78;4913318;28;105070;-77
2022/05/31 01:42:31;;;;;;;3.30;2.37;;;;;;;7.99;100.00;95995.19;4912400;28;105666;-77
2022/05/31 01:45:33;;;;;;;2.23;2.03;;;;;;;8.07;100.00;95994.78;4912996;28;102008;-77
2022/05/31 01:48:05;;;;;;;2.03;1.93;;;;;;;8.02;100.00;95989.41;4913065;28;105282;-77
2022/05/31 01:50:32;;;;;;;2.13;2.00;;;;;;;8.08;100.00;95985.78;4915759;28;103776;-77
2022/05/31 01:53:02;;;;;;;2.03;1.90;;;;;;;8.07;100.00;95981.56;4912889;28;103847;-77
2022/05/31 01:55:52;;;;;;;2.43;2.17;;;;;;;7.92;100.00;95990.06;4912454;28;105417;-77
2022/05/31 02:01:47;;;;;;;1.97;1.87;;;;;;;7.73;100.00;95969.38;4913010;28;104725;-76
2022/05/31 02:04:15;;;;;;;1.87;1.77;;;;;;;7.78;100.00;95972.09;4911437;28;105272;-76
2022/05/31 02:06:43;;;;;;;1.87;1.77;;;;;;;7.84;100.00;95971.13;4912665;28;101786;-75
2022/05/31 02:09:14;;;;;;;2.27;1.87;;;;;;;7.89;100.00;95965.91;4912582;28;105176;-76
2022/05/31 02:11:44;;;;;;;1.90;1.80;;;;;;;7.84;100.00;95971.13;4911905;28;104802;-77
2022/05/31 02:17:56;;;;;;;2.50;2.30;;;;;;;7.62;100.00;95967.63;4911884;28;103769;-77
2022/05/31 02:20:43;;;;;;;2.47;2.27;;;;;;;7.73;100.00;95962.25;4902475;28;101991;-76
2022/05/31 02:23:10;;;;;;;2.47;2.23;;;;;;;7.74;100.00;95966.50;4912512;28;104724;-77
2022/05/31 02:26:09;;;;;;;2.10;2.00;;;;;;;7.71;100.00;95963.53;4913216;28;103102;-77
2022/05/31 02:28:36;;;;;;;2.60;2.10;;;;;;;7.71;100.00;95968.84;4912410;28;102002;-77
2022/05/31 02:31:03;;;;;;;2.27;2.07;;;;;;;7.80;100.00;95967.41;4912493;28;105183;-76
2022/05/31 02:33:30;;;;;;;2.17;2.07;;;;;;;7.82;100.00;95966.13;4911614;28;103723;-77
2022/05/31 02:35:58;;;;;;;2.40;2.20;;;;;;;7.79;100.00;95969.22;4912210;28;102008;-77
2022/05/31 02:38:25;;;;;;;2.13;2.00;;;;;;;7.88;100.00;95959.84;4915090;28;105280;-76
2022/05/31 02:40:52;;;;;;;2.20;2.00;;;;;;;7.81;100.00;95964.47;4912187;28;101755;-77
2022/05/31 02:43:20;;;;;;;2.23;2.13;;;;;;;7.86;100.00;95961.13;4911505;28;104803;-77
2022/05/31 02:45:48;;;;;;;5.10;2.43;;;;;;;7.75;100.00;95951.44;4911388;28;104927;-76
2022/05/31 02:48:15;;;;;;;2.23;2.13;;;;;;;7.58;100.00;95955.94;4912203;28;101874;-77
2022/05/31 02:50:43;;;;;;;2.60;2.40;;;;;;;7.68;100.00;95975.41;4912012;28;104987;-77
2022/05/31 02:53:10;;;;;;;2.80;2.60;;;;;;;7.65;100.00;95959.22;4911280;28;105687;-77
2022/05/31 02:55:39;;;;;;;2.77;2.60;;;;;;;7.55;100.00;95964.38;4912040;28;102219;-77
2022/05/31 02:58:31;;;;;;;3.10;2.70;;;;;;;7.67;100.00;95965.88;4885026;28;102654;-76
2022/05/31 03:01:22;;;;;;;2.63;2.43;;;;;;;7.62;100.00;95975.56;4916164;28;102265;-76
2022/05/31 03:04:09;;;;;;;3.17;2.97;;;;;;;7.69;100.00;95968.28;4910992;28;102049;-77
2022/05/31 03:07:10;;;;;;;2.80;2.60;;;;;;;7.77;100.00;95978.44;4888093;28;102969;-76
2022/05/31 03:09:57;;;;;;;2.83;2.67;;;;;;;7.80;100.00;95977.97;4911757;28;101824;-77
2022/05/31 03:12:27;;;;;;;3.03;2.83;;;;;;;7.84;100.00;95987.03;4911821;28;104087;-76
2022/05/31 03:15:32;;;;;;;2.80;2.60;;;;;;;7.86;100.00;95984.94;4911310;28;105413;-77
2022/05/31 03:18:04;;;;;;;3.17;2.97;;;;;;;7.81;100.00;95976.94;4911719;28;101825;-77
2022/05/31 03:20:35;;;;;;;3.23;3.03;;;;;;;7.85;100.00;95978.84;4895846;28;104985;-77
2022/05/31 03:23:06;;;;;;;3.60;3.30;;;;;;;7.89;100.00;95973.84;4911072;28;104098;-77
2022/05/31 03:32:23;;;;;;;2.80;2.60;;;;;;;7.96;100.00;95979.81;4911696;28;101824;-77
2022/05/31 03:35:07;;;;;;;3.07;2.77;;;;;;;7.96;100.00;95985.88;4895225;28;104894;-77
2022/05/31 03:37:35;;;;;;;3.10;2.90;;;;;;;7.95;100.00;95983.47;4910776;28;105141;-77
2022/05/31 03:40:56;;;;;;;2.87;2.67;;;;;;;7.88;100.00;95982.84;4911217;28;101841;-77
2022/05/31 03:43:02;;;;;;;3.43;3.23;;;;;;;7.92;100.00;95987.41;4897913;28;104942;-77
2022/05/31 03:45:34;;;;;;;3.50;3.20;;;;;;;8.01;100.00;95993.91;4910577;28;105324;-77
2022/05/31 03:48:23;;;;;;;2.87;2.67;;;;;;;8.12;100.00;95990.34;4911500;28;102837;-77
2022/05/31 03:51:00;;;;;;;2.63;2.53;;;;;;;8.18;100.00;95993.88;4914151;28;105263;-77
2022/05/31 03:53:29;;;;;;;3.43;3.17;;;;;;;8.11;100.00;96006.47;4911574;28;101895;-77
2022/05/31 03:55:57;;;;;;;3.40;2.90;;;;;;;8.17;100.00;96008.13;4914757;28;104182;-77
2022/05/31 03:58:25;;;;;;;3.20;3.00;;;;;;;8.22;100.00;96011.72;4914216;28;105081;-77
2022/05/31 04:00:56;;;;;;;3.40;3.20;;;;;;;8.18;100.00;96012.41;4914585;28;101889;-76
2022/05/31 04:03:28;;;;;;;2.97;2.77;;;;;;;8.26;100.00;96012.84;4898169;28;105446;-77
2022/05/31 04:05:56;;;;;;;2.97;2.77;;;;;;;8.18;100.00;96013.19;4913894;28;105756;-77
2022/05/31 04:08:25;;;;;;;3.40;3.10;;;;;;;8.09;100.00;96005.94;4914582;28;101970;-77
2022/05/31 04:10:52;;;;;;;3.10;2.90;;;;;;;8.14;100.00;96014.75;4917160;28;105235;-77
2022/05/31 04:13:19;;;;;;;3.07;2.87;;;;;;;8.15;100.00;96004.94;4914476;28;101875;-77
2022/05/31 04:19:29;;;;;;;3.70;3.00;;;;;;;8.36;100.00;96012.97;4913818;28;105683;-77
2022/05/31 04:21:57;;;;;;;3.37;2.83;;;;;;;8.43;100.00;96013.56;4914249;28;102278;-76
2022/05/31 04:24:24;;;;;;;2.97;2.83;;;;;;;8.36;100.00;96012.16;4914315;28;103956;-77
2022/05/31 04:27:21;;;;;;;3.23;3.00;;;;;;;8.61;100.00;96020.44;4914560;28;103640;-77
2022/05/31 04:30:08;;;;;;;3.90;3.43;;;;;;;8.57;100.00;96021.97;4912947;28;101936;-77
2022/05/31 04:33:13;;;;;;;4.07;3.53;;;;;;;8.65;100.00;96029.47;4915047;28;103553;-77
2022/05/31 04:35:43;;;;;;;4.93;3.40;;;;;;;8.81;100.00;96021.47;4916837;28;105037;-77
2022/05/31 04:38:11;;;;;;;3.60;3.30;;;;;;;9.01;100.00;96018.25;4914029;28;105456;-77
2022/05/31 04:40:47;;;;;;;3.33;3.07;;;;;;;9.35;100.00;96024.94;4913327;28;105470;-77
2022/05/31 04:43:52;;;;;;;3.70;3.40;;;;;;;9.26;100.00;96023.81;4909103;28;101939;-77
2022/05/31 04:46:27;;;;;;;4.10;3.80;;;;;;;9.52;100.00;96017.66;4904755;28;105354;-77
2022/05/31 04:49:02;;;;;;;5.67;5.00;;;;;;;9.50;100.00;96019.78;4913355;28;105535;-77
2022/05/31 04:51:32;;;;;;;5.30;4.80;;;;;;;9.55;100.00;96019.81;4913774;28;101934;-77
2022/05/31 04:54:00;;;;;;;4.90;4.50;;;;;;;9.75;100.00;96017.34;4913838;28;105015;-76
2022/05/31 04:56:37;;;;;;;3.73;3.43;;;;;;;9.78;100.00;96022.94;4911531;28;102564;-77
2022/05/31 05:02:29;;;;;;;3.73;3.43;;;;;;;10.27;100.00;96021.72;4913389;28;105077;-76
2022/05/31 05:05:04;;;;;;;4.47;3.40;;;;;;;10.49;100.00;96016.25;4912712;28;101937;-77
2022/05/31 05:08:01;;;;;;;4.33;3.30;;;;;;;10.68;100.00;96014.75;4905775;28;102503;-77
2022/05/31 05:10:33;;;;;;;3.67;3.30;;;;;;;10.76;100.00;96019.56;4912999;28;102892;-77
2022/05/31 05:13:24;;;;;;;3.10;2.90;;;;;;;10.69;100.00;96029.66;4911003;28;101923;-77
2022/05/31 05:16:16;;;;;;;3.27;2.97;;;;;;;10.74;100.00;96032.34;4913708;28;103675;-77
2022/05/31 05:18:49;;;;;;;3.20;2.90;;;;;;;10.89;100.00;96021.72;4912997;28;105488;-77
2022/05/31 05:21:18;;;;;;;5.03;3.17;;;;;;;10.99;100.00;96019.13;4913395;28;102504;-76
2022/05/31 05:23:58;;;;;;;3.23;2.70;;;;;;;11.13;100.00;96022.91;4916301;28;104907;-76
2022/05/31 05:26:31;;;;;;;2.80;2.60;;;;;;;11.10;100.00;96015.41;4913310;28;101841;-76
2022/05/31 05:32:07;;;;;;;2.30;2.17;;;;;;;11.55;100.00;96018.19;4912730;28;105630;-75
2022/05/31 05:34:56;;;;;;;2.30;2.20;;;;;;;11.71;100.00;96014.47;4911433;28;101847;-76
2022/05/31 05:37:25;;;;;;;5.00;2.50;;;;;;;11.49;100.00;96029.88;4913329;28;104919;-76
2022/05/31 05:39:55;;;;;;;2.37;2.17;;;;;;;11.62;100.00;96016.88;4912495;28;104412;-76
2022/05/31 05:42:44;;;;;;;2.13;2.00;;;;;;;12.04;100.00;96021.94;4914246;28;101974;-77
2022/05/31 05:48:43;;;;;;;3.70;3.40;;;;;;;12.20;100.00;96013.66;4916098;28;104154;-76
2022/05/31 05:51:18;;;;;;;3.40;3.20;;;;;;;12.50;100.00;96015.47;4913020;28;102998;-76
2022/05/31 05:54:23;;;;;;;4.53;3.40;;;;;;;12.64;100.00;96011.94;4910997;28;102285;-76
2022/05/31 05:57:13;;;;;;;3.13;2.90;;;;;;;12.82;100.00;96007.88;4914651;28;102174;-77
2022/05/31 05:59:59;;;;;;;2.80;2.60;;;;;;;12.86;100.00;96006.28;4914971;28;102060;-74
2022/05/31 06:02:49;;;;;;;2.70;2.50;;;;;;;13.01;100.00;96015.03;4915640;28;102264;-74
2022/05/31 06:05:31;;;;;;;3.20;2.70;;;;;;;13.11;100.00;96016.84;4914648;28;102258;-75
2022/05/31 06:08:22;;;;;;;4.17;2.53;;;;;;;13.10;100.00;96015.25;4913408;28;104880;-74
2022/05/31 06:11:07;;;;;;;2.50;2.30;;;;;;;13.22;100.00;96023.72;4912171;28;102987;-71
2022/05/31 06:13:40;;;;;;;3.70;2.40;;;;;;;13.05;100.00;96015.28;4915391;28;101994;-72
2022/05/31 06:16:09;;;;;;;2.60;2.30;;;;;;;13.38;100.00;96014.56;4912146;28;105436;-73
2022/05/31 06:18:44;;;;;;;2.50;2.30;;;;;;;13.63;100.00;96017.06;4911091;28;101954;-73
2022/05/31 06:21:14;;;;;;;3.87;2.50;;;;;;;14.11;100.00;96011.59;4912444;28;103783;-74
2022/05/31 06:23:49;;;;;;;2.60;2.40;;;;;;;14.49;100.00;96015.28;4912118;28;105378;-76
2022/05/31 06:26:18;;;;;;;2.73;2.50;;;;;;;14.57;100.00;96018.16;4912199;28;101932;-69
2022/05/31 06:29:36;;;;;;;2.90;2.00;;;;;;;14.55;100.00;96019.50;4912487;28;103700;-74
2022/05/31 06:32:07;;;;;;;2.23;1.93;;;;;;;14.80;100.00;96016.53;4911957;28;104541;-75
2022/05/31 06:34:47;;;;;;;2.60;2.27;;;;;;;14.20;100.00;96023.31;4914274;28;101855;-76
2022/05/31 06:37:41;;;;;;;2.47;1.80;;;;;;;14.35;100.00;96025.84;4911325;28;103677;-73
2022/05/31 06:40:09;;;;;;;1.80;1.70;;;;;;;14.56;100.00;96026.44;4912309;28;101913;-80
2022/05/31 06:43:14;;;;;;;1.73;1.63;;;;;;;14.89;100.00;96022.84;4920170;28;105073;-79
2022/05/31 06:46:19;;;;;;;1.90;1.70;;;;;;;14.95;100.00;96016.38;4836467;29;102962;-80
2022/05/31 06:49:07;;;;;;;2.17;1.77;;;;;;;14.96;100.00;96021.44;4910849;28;101916;-77
2022/05/31 06:57:55;;;;;;;2.57;1.87;;;;;;;15.25;100.00;96018.63;4910738;28;101860;-75
2022/05/31 07:00:32;;;;;;;2.63;1.80;;;;;;;15.81;100.00;96014.13;4918302;28;104162;-83
2022/05/31 07:02:59;;;;;;;1.93;1.40;;;;;;;16.36;100.00;96015.88;4916013;28;102344;-82
2022/05/31 07:05:44;;;;;;;2.13;1.40;;;;;;;16.01;100.00;96003.06;4934351;28;105188;-80
2022/05/31 07:08:31;;;;;;;1.50;1.40;;;;;;;15.82;100.00;96010.34;4930974;28;103792;-87
2022/05/31 07:11:02;;;;;;;1.53;1.43;;;;;;;15.78;100.00;96001.28;4936523;28;102237;-86
2022/05/31 07:14:18;;;;;;;1.57;1.47;;;;;;;15.66;100.00;96011.66;4936010;28;103608;-85
2022/05/31 07:17:20;;;;;;;2.50;1.50;;;;;;;15.21;100.00;96001.56;4884683;28;102763;-84
2022/05/31 07:19:52;;;;;;;1.50;1.40;;;;;;;15.34;100.00;96007.03;4908359;28;101876;-73
2022/05/31 07:22:24;;;;;;;1.60;1.50;;;;;;;15.98;100.00;96009.03;4913058;28;105039;-74
2022/05/31 07:25:38;;;;;;;2.27;1.43;;;;;;;16.86;100.00;96006.91;4914936;28;103944;-74
2022/05/31 07:28:42;;;;;;;1.27;1.27;;;;;;;16.99;100.00;96009.59;4911513;28;105402;-73
2022/05/31 07:31:13;;;;;;;1.40;1.30;;;;;;;16.88;100.00;96002.03;4891809;28;105077;-75
2022/05/31 07:34:19;;;;;;;1.47;1.37;;;;;;;16.77;100.00;96003.31;4892335;28;102113;-75
2022/05/31 07:36:48;;;;;;;1.90;1.50;;;;;;;16.45;100.00;95998.81;4892647;28;105366;-76
2022/05/31 07:39:22;;;;;;;1.60;1.50;;;;;;;16.67;100.00;96007.00;4892879;28;102553;-76
2022/05/31 07:41:52;;;;;;;1.50;1.40;;;;;;;16.77;100.00;95997.94;4895505;28;102216;-73
2022/05/31 07:44:34;;;;;;;2.10;1.27;;;;;;;16.81;100.00;96001.63;4930948;28;104456;-79
2022/05/31 07:47:02;;;;;;;1.13;1.13;;;;;;;16.75;100.00;95995.59;4914881;28;105397;-76
2022/05/31 07:49:30;;;;;;;1.50;1.40;;;;;;;16.81;100.00;96004.31;4915224;28;102140;-75
2022/05/31 07:52:32;;;;;;;1.70;1.60;;;;;;;16.69;100.00;95999.47;4910785;28;104867;-75
2022/05/31 07:55:34;;;;;;;3.03;1.57;;;;;;;16.73;100.00;96005.03;4909672;28;102114;-74
2022/05/31 07:58:33;;;;;;;1.50;1.40;;;;;;;16.74;100.00;96006.63;4882097;28;102668;-75
2022/05/31 08:01:38;;;;;;;2.00;1.40;;;;;;;16.89;100.00;96014.38;4852553;29;102689;-72
2022/05/31 08:04:21;;;;;;;1.60;1.50;;;;;;;16.62;100.00;96012.47;4852117;29;102148;-77
2022/05/31 08:06:48;;;;;;;2.63;1.57;;;;;;;16.04;100.00;96011.34;4877854;28;103995;-77
2022/05/31 08:09:15;;;;;;;4.43;1.57;;;;;;;16.13;100.00;96008.78;4916494;28;105660;-76
2022/05/31 08:11:44;;;;;;;1.43;1.33;;;;;;;16.56;100.00;96004.81;4929966;28;102022;-75
2022/05/31 08:14:29;;;;;;;1.43;1.33;;;;;;;16.80;100.00;96010.78;4914696;28;105302;-74
2022/05/31 08:16:56;;;;;;;1.83;1.60;;;;;;;16.11;100.00;96014.44;4911054;28;101827;-77
2022/05/31 08:19:23;;;;;;;5.57;2.03;;;;;;;16.26;100.00;96013.38;4910455;28;104522;-74
2022/05/31 08:21:50;;;;;;;2.40;1.67;;;;;;;16.61;100.00;96002.81;4910144;28;105648;-78
2022/05/31 08:24:26;;;;;;;3.90;1.57;;;;;;;16.28;100.00;96012.00;4910793;28;101913;-77
2022/05/31 08:27:00;;;;;;;1.67;1.57;;;;;;;16.47;100.00;96017.31;4910818;28;105089;-74
2022/05/31 08:29:28;;;;;;;2.80;1.50;;;;;;;16.57;100.00;96004.50;4909863;28;105221;-73
2022/05/31 08:31:58;;;;;;;2.30;1.47;;;;;;;16.81;100.00;96007.81;4911697;28;102213;-77
2022/05/31 08:34:37;;;;;;;4.70;1.80;;;;;;;17.09;100.00;96000.53;4910863;28;104798;-77
2022/05/31 08:37:05;;;;;;;1.47;1.37;;;;;;;17.30;100.00;96002.50;4916035;28;102186;-71
2022/05/31 08:39:32;;;;;;;1.73;1.40;;;;;;;17.32;100.00;96002.19;4925004;28;102487;-80
2022/05/31 08:42:07;;;;;;;1.60;1.40;;;;;;;17.29;100.00;95990.16;4913760;28;103033;-79
2022/05/31 08:44:59;;;;;;;1.53;1.40;;;;;;;17.11;100.00;95996.44;4914199;28;102064;-74
2022/05/31 08:47:39;;;;;;;1.60;1.50;;;;;;;17.30;100.00;95999.00;4914863;28;105746;-76
2022/05/31 08:53:35;;;;;;;1.73;1.30;;;;;;;17.61;100.00;96005.34;4932438;28;101858;-72
2022/05/31 08:59:10;;;;;;;2.00;1.53;;;;;;;18.28;100.00;96002.38;4935692;28;105641;-76
2022/05/31 09:01:48;;;;;;;2.40;1.50;;;;;;;17.88;100.00;95997.19;4919211;28;102615;-74
2022/05/31 09:04:28;;;;;;;3.73;1.60;;;;;;;17.98;100.00;95994.25;4893846;28;105643;-75
2022/05/31 09:06:59;;;;;;;1.60;1.10;;;;;;;18.08;100.00;95988.59;4896674;28;101949;-75
2022/05/31 09:09:31;;;;;;;2.43;1.20;;;;;;;18.37;100.00;95975.53;4933429;28;104422;-79
2022/05/31 09:12:03;;;;;;;1.13;1.10;;;;;;;18.52;100.00;95983.97;4931918;28;105377;-73
2022/05/31 09:14:43;;;;;;;1.93;1.10;;;;;;;18.55;100.00;95974.50;4932866;28;101990;-77
2022/05/31 09:17:22;;;;;;;1.90;1.20;;;;;;;19.12;100.00;95976.13;4932406;28;105432;-75
2022/05/31 09:19:56;;;;;;;1.27;1.17;;;;;;;19.26;100.00;95979.50;4931846;28;105657;-74
2022/05/31 09:22:23;;;;;;;1.20;1.10;;;;;;;19.21;100.00;95979.63;4936550;28;101813;-83
2022/05/31 09:25:08;;;;;;;1.37;1.27;;;;;;;19.40;100.00;95980.19;4933681;28;104097;-74
2022/05/31 09:27:42;;;;;;;1.10;1.00;;;;;;;19.58;100.00;95974.47;4906097;28;102159;-74
2022/05/31 09:30:16;;;;;;;1.87;1.20;;;;;;;20.03;100.00;95969.53;4913623;28;104819;-73
2022/05/31 09:32:58;;;;;;;2.47;1.00;;;;;;;20.38;100.00;95971.09;4913339;28;105558;-74
2022/05/31 09:36:11;;;;;;;1.57;1.20;;;;;;;20.05;100.00;95964.63;4913137;28;102524;-75
2022/05/31 09:39:19;;;;;;;1.00;1.00;;;;;;;19.68;100.00;95962.59;4899780;28;104964;-74
2022/05/31 09:41:52;;;;;;;2.20;1.07;;;;;;;20.15;100.00;95961.59;4932649;28;102799;-75
2022/05/31 09:44:35;;;;;;;1.00;1.00;;;;;;;20.40;100.00;95955.34;4935114;28;101806;-76
2022/05/31 09:47:21;;;;;;;1.37;1.10;;;;;;;20.28;100.00;95957.94;4898038;28;104898;-74
2022/05/31 09:49:54;;;;;;;0.90;0.90;;;;;;;20.75;100.00;95954.09;4896518;28;102079;-74
2022/05/31 09:52:30;;;;;;;0.70;0.70;;;;;;;21.13;100.00;95952.19;4912793;28;105058;-73
2022/05/31 09:59:13;;;;;;;1.87;0.80;;;;;;;21.60;99.72;95948.22;4917659;28;102198;-80
2022/05/31 10:02:15;;;;;;;1.00;0.90;;;;;;;21.07;100.00;95945.38;4931684;28;102122;-71
2022/05/31 10:04:50;;;;;;;1.97;0.93;;;;;;;21.85;100.00;95947.25;4930128;28;105908;-71
2022/05/31 10:07:35;;;;;;;0.80;0.80;;;;;;;22.30;98.58;95939.94;4925868;28;101896;-81
2022/05/31 10:10:07;;;;;;;1.00;0.90;;;;;;;22.27;100.00;95946.84;4916733;28;104893;-81
2022/05/31 10:12:34;;;;;;;0.97;0.73;;;;;;;22.01;100.00;95940.88;4918218;28;106005;-76
2022/05/31 10:15:06;;;;;;;0.70;0.70;;;;;;;22.07;100.00;95934.13;4915006;28;104939;-74
2022/05/31 10:17:42;;;;;;;0.80;0.80;;;;;;;22.04;100.00;95926.69;4922606;28;105068;-74
2022/05/31 10:20:18;;;;;;;2.00;1.40;;;;;;;22.56;100.00;95926.94;4932948;28;101987;-75
2022/05/31 10:22:55;;;;;;;1.10;1.00;;;;;;;22.25;100.00;95926.63;4921404;28;105298;-75
2022/05/31 10:25:45;;;;;;;1.23;1.03;;;;;;;22.44;100.00;95927.72;4921926;28;102389;-75
2022/05/31 10:28:36;;;;;;;1.37;1.03;;;;;;;22.29;100.00;95927.53;4931253;28;101994;-75
2022/05/31 10:31:14;;;;;;;0.80;0.80;;;;;;;22.59;100.00;95920.84;4930047;28;105316;-75
2022/05/31 10:37:25;;;;;;;0.80;0.80;;;;;;;22.86;94.13;95920.16;4915589;28;101841;-75
2022/05/31 10:40:07;;;;;;;1.23;1.03;;;;;;;23.77;94.73;95914.84;4912521;28;105167;-75
2022/05/31 10:42:38;;;;;;;1.50;0.80;;;;;;;23.90;92.48;95905.53;4911889;28;102081;-75
2022/05/31 10:45:10;;;;;;;1.27;1.00;;;;;;;23.62;86.04;95904.72;4912225;28;106419;-75
2022/05/31 10:47:37;;;;;;;0.60;0.60;;;;;;;23.93;87.62;95899.44;4929925;28;104340;-75
2022/05/31 10:50:07;;;;;;;0.83;0.60;;;;;;;24.10;76.38;95899.13;4914481;28;101907;-75
2022/05/31 10:52:43;;;;;;;0.70;0.70;;;;;;;24.22;71.34;95893.59;4931945;28;102823;-75
2022/05/31 10:55:37;;;;;;;0.67;0.67;;;;;;;24.44;79.12;95885.66;4915190;28;103256;-75
2022/05/31 10:58:42;;;;;;;1.23;0.80;;;;;;;24.62;67.32;95878.75;4915012;28;101866;-75
2022/05/31 11:01:26;;;;;;;1.00;0.60;;;;;;;24.84;55.24;95874.63;4913202;28;103289;-75
2022/05/31 11:04:04;;;;;;;1.03;0.70;;;;;;;24.90;52.15;95871.28;4923259;28;102038;-75
2022/05/31 11:06:39;;;;;;;2.00;0.60;;;;;;;25.12;54.10;95875.28;4930381;28;105393;-75
2022/05/31 11:12:18;;;;;;;1.40;0.70;;;;;;;25.40;53.68;95865.81;4930546;28;102296;-75
2022/05/31 11:15:00;;;;;;;1.03;0.70;;;;;;;25.69;55.59;95857.09;4903093;28;106948;-75
2022/05/31 11:18:09;;;;;;;0.80;0.50;;;;;;;26.11;49.42;95852.47;4910248;28;105284;-75
2022/05/31 11:20:42;;;;;;;1.83;0.50;;;;;;;26.01;45.34;95855.03;4911550;28;101829;-75
2022/05/31 11:23:22;;;;;;;1.23;0.60;;;;;;;26.07;39.74;95857.09;4913662;28;105466;-75
2022/05/31 11:26:07;;;;;;;0.53;0.40;;;;;;;25.74;47.48;95858.75;4910979;28;101923;-75
2022/05/31 11:28:57;;;;;;;0.60;0.60;;;;;;;25.69;42.54;95865.28;4910952;28;105276;-75
2022/05/31 11:31:38;;;;;;;1.27;0.83;;;;;;;24.80;42.69;95858.22;4908772;28;105528;-75
2022/05/31 11:34:19;;;;;;;0.60;0.60;;;;;;;25.44;44.50;95855.81;4910770;28;101946;-75
2022/05/31 11:36:57;;;;;;;0.80;0.80;;;;;;;26.05;44.45;95842.25;4910982;28;105084;-75
2022/05/31 11:39:42;;;;;;;0.60;0.60;;;;;;;25.99;43.62;95843.72;4910429;28;105603;-75
2022/05/31 11:42:23;;;;;;;1.97;0.60;;;;;;;26.25;39.83;95841.03;4910738;28;101906;-74
2022/05/31 11:45:05;;;;;;;1.13;0.63;;;;;;;25.01;39.34;95825.28;4910987;28;104174;-75
2022/05/31 11:47:53;;;;;;;3.03;0.80;;;;;;;23.55;42.17;95828.50;4914661;28;101838;-75
2022/05/31 11:50:28;;;;;;;1.83;0.73;;;;;;;23.69;47.00;95820.75;4908332;28;105342;-75
2022/05/31 11:53:36;;;;;;;2.53;0.60;;;;;;;24.15;44.37;95814.63;4911627;28;101778;-75
2022/05/31 11:56:09;;;;;;;0.87;0.80;;;;;;;24.89;41.09;95814.50;4907766;28;101862;-75
2022/05/31 11:58:46;;;;;;;2.23;0.83;;;;;;;25.24;41.65;95812.56;4910339;28;105357;-74
2022/05/31 12:01:20;;;;;;;1.43;0.60;;;;;;;25.28;40.10;95805.31;4909849;28;106076;-74
2022/05/31 12:03:57;;;;;;;1.87;0.60;;;;;;;26.34;39.37;95809.69;4911656;28;102016;-74
2022/05/31 12:06:33;;;;;;;1.07;0.70;;;;;;;26.81;39.05;95809.28;4910584;28;105231;-74
2022/05/31 12:09:09;;;;;;;1.80;0.77;;;;;;;26.05;37.94;95818.50;4909690;28;104755;-74
2022/05/31 12:11:39;;;;;;;0.80;0.60;;;;;;;24.06;36.82;95816.72;4913830;28;101823;-74
2022/05/31 12:14:12;;;;;;;1.53;0.50;;;;;;;24.31;37.93;95812.72;4911142;28;102908;-74
2022/05/31 12:16:40;;;;;;;0.50;0.50;;;;;;;25.09;37.90;95813.41;4913694;28;101875;-75
2022/05/31 12:19:18;;;;;;;0.63;0.60;;;;;;;25.82;39.42;95814.94;4913709;28;105325;-74
2022/05/31 12:21:52;;;;;;;1.27;0.50;;;;;;;26.04;38.22;95813.44;4910857;28;105719;-74
2022/05/31 12:24:22;;;;;;;0.83;0.80;;;;;;;26.37;38.66;95811.66;4915309;28;101742;-74
2022/05/31 12:26:55;;;;;;;1.47;0.60;;;;;;;25.97;35.03;95808.63;4913415;28;104429;-74
2022/05/31 12:29:29;;;;;;;1.53;0.80;;;;;;;25.92;35.08;95810.84;4912822;28;106018;-74
2022/05/31 12:32:28;;;;;;;0.63;0.60;;;;;;;24.91;35.77;95806.78;4913647;28;101889;-74
2022/05/31 12:34:56;;;;;;;1.43;0.70;;;;;;;24.80;35.88;95805.75;4916102;28;104103;-74
2022/05/31 12:37:23;;;;;;;1.67;0.70;;;;;;;25.16;36.47;95805.38;4914991;28;101753;-74
2022/05/31 12:39:52;;;;;;;0.80;0.60;;;;;;;25.84;35.60;95799.00;4913276;28;104812;-74
2022/05/31 12:42:40;;;;;;;0.83;0.63;;;;;;;25.52;36.62;95799.56;4912872;28;105647;-74
2022/05/31 12:45:47;;;;;;;1.10;0.90;;;;;;;25.64;37.71;95797.47;4913261;28;101864;-74
2022/05/31 12:48:24;;;;;;;2.50;1.00;;;;;;;24.96;37.24;95795.63;4912376;28;102611;-74
2022/05/31 12:51:11;;;;;;;1.57;0.73;;;;;;;25.53;36.58;95787.50;4895590;28;105032;-74
2022/05/31 12:54:03;;;;;;;1.73;0.90;;;;;;;25.37;34.37;95789.53;4896085;28;102007;-74
2022/05/31 12:56:57;;;;;;;1.93;0.77;;;;;;;25.63;34.66;95790.47;4895969;28;105395;-74
2022/05/31 12:59:51;;;;;;;2.00;0.77;;;;;;;25.56;34.88;95782.13;4898979;28;105606;-75
2022/05/31 13:02:40;;;;;;;1.90;0.70;;;;;;;25.34;34.44;95791.03;4895962;28;105153;-74
2022/05/31 13:05:34;;;;;;;1.40;0.70;;;;;;;24.55;36.87;95796.19;4892110;28;105598;-74